Time;durP1;ratioP1;P1;durP2;ratioP2;P2;SDS_P1;SDS_P2;PMS_P1;PMS_P2;Temp;Humidity;BMP_temperature;BMP_pressure;BME280_temperature;BME280_humidity;BME280_pressure;Samples;Min_cycle;Max_cycle;Signal;HPM_P1;HPM_P2
2023/08/01 00:00:07;;;;;;;7.70;5.30;;;22.70;74.50;;;;;;4959394;28;20034;-68
2023/08/01 00:02:33;;;;;;;10.02;6.10;;;22.70;74.60;;;;;;4958704;28;20031;-68
2023/08/01 00:04:59;;;;;;;8.38;5.45;;;22.70;74.70;;;;;;4958777;28;20024;-68
2023/08/01 00:07:27;;;;;;;9.73;6.80;;;22.70;74.60;;;;;;4959097;28;20464;-70
2023/08/01 00:09:53;;;;;;;11.82;8.35;;;22.70;74.60;;;;;;4959148;28;20050;-68
2023/08/01 00:12:19;;;;;;;11.18;6.55;;;22.70;74.80;;;;;;4959178;28;20368;-69
2023/08/01 00:14:45;;;;;;;8.13;5.82;;;22.60;74.90;;;;;;4958161;29;20047;-67
2023/08/01 00:17:12;;;;;;;9.95;7.00;;;22.60;74.90;;;;;;4958980;28;20339;-67
2023/08/01 00:19:38;;;;;;;9.27;6.72;;;22.60;74.90;;;;;;4959562;28;20505;-68
2023/08/01 00:22:04;;;;;;;10.43;8.32;;;22.60;75.10;;;;;;4958980;28;20086;-68
2023/08/01 00:24:30;;;;;;;8.07;5.55;;;22.60;76.00;;;;;;4959417;29;20027;-69
2023/08/01 00:26:56;;;;;;;7.97;6.03;;;22.50;75.50;;;;;;4958881;28;20063;-68
2023/08/01 00:29:22;;;;;;;11.02;6.20;;;22.50;75.70;;;;;;4959253;28;20035;-68
2023/08/01 00:31:49;;;;;;;9.85;6.63;;;22.50;75.50;;;;;;4958846;28;20031;-68
2023/08/01 00:34:15;;;;;;;9.30;6.38;;;22.50;75.60;;;;;;4958987;28;20055;-68
2023/08/01 00:36:40;;;;;;;9.02;6.22;;;22.50;75.50;;;;;;4958894;28;20335;-68
2023/08/01 00:39:07;;;;;;;6.45;4.88;;;22.40;75.50;;;;;;4958699;28;20023;-69
2023/08/01 00:41:33;;;;;;;7.53;5.00;;;22.50;75.50;;;;;;4959110;28;20086;-68
2023/08/01 00:43:59;;;;;;;9.77;6.15;;;22.50;75.50;;;;;;4958572;28;20027;-68
2023/08/01 00:46:25;;;;;;;8.48;5.63;;;22.50;75.40;;;;;;4958537;28;20107;-68
2023/08/01 00:48:52;;;;;;;8.15;6.07;;;22.50;75.30;;;;;;4958406;28;20102;-68
2023/08/01 00:51:18;;;;;;;10.05;5.20;;;22.40;75.40;;;;;;4958732;28;20117;-68
2023/08/01 00:53:46;;;;;;;8.57;5.40;;;22.40;75.40;;;;;;4958880;29;20071;-68
2023/08/01 00:56:12;;;;;;;13.32;5.65;;;22.40;75.40;;;;;;4958319;28;20466;-68
2023/08/01 00:58:38;;;;;;;7.85;5.60;;;22.40;75.40;;;;;;4958179;28;20369;-68
2023/08/01 01:01:04;;;;;;;7.05;5.15;;;22.40;75.60;;;;;;4958250;29;20106;-69
2023/08/01 01:03:30;;;;;;;7.07;5.30;;;22.40;75.60;;;;;;4957189;28;20369;-68
2023/08/01 01:06:21;;;;;;;7.95;5.47;;;22.40;75.60;;;;;;4957301;28;20043;-68
2023/08/01 01:08:48;;;;;;;7.28;4.90;;;22.40;75.70;;;;;;4957979;28;20075;-68
2023/08/01 01:11:14;;;;;;;10.40;5.20;;;22.30;76.00;;;;;;4958258;29;20054;-68
2023/08/01 01:13:40;;;;;;;6.30;4.88;;;22.30;75.80;;;;;;4958282;28;20449;-68
2023/08/01 01:16:07;;;;;;;8.15;5.13;;;22.30;75.90;;;;;;4957960;28;20365;-67
2023/08/01 01:18:33;;;;;;;10.02;4.30;;;22.30;75.80;;;;;;4957364;28;20027;-68
2023/08/01 01:20:59;;;;;;;7.97;4.53;;;22.30;75.70;;;;;;4957825;28;20042;-68
2023/08/01 01:23:26;;;;;;;10.18;4.80;;;22.20;75.70;;;;;;4958098;28;20438;-69
2023/08/01 01:25:54;;;;;;;8.05;4.75;;;22.30;75.80;;;;;;4958067;28;20027;-68
2023/08/01 01:28:21;;;;;;;6.35;4.22;;;22.30;75.80;;;;;;4957700;28;20059;-68
2023/08/01 01:30:49;;;;;;;6.70;4.35;;;22.20;75.70;;;;;;4956796;29;20085;-68
2023/08/01 01:33:16;;;;;;;8.00;4.40;;;22.20;75.80;;;;;;4957720;28;20050;-69
2023/08/01 01:35:42;;;;;;;7.90;5.05;;;22.20;75.80;;;;;;4957597;28;20110;-69
2023/08/01 01:38:08;;;;;;;9.85;4.70;;;22.20;75.90;;;;;;4958095;28;20050;-68
2023/08/01 01:40:34;;;;;;;9.85;4.63;;;22.20;75.70;;;;;;4958142;28;20031;-68
2023/08/01 01:43:01;;;;;;;7.90;4.32;;;22.30;75.70;;;;;;4957816;28;20501;-68
2023/08/01 01:45:28;;;;;;;7.63;3.78;;;22.20;75.70;;;;;;4957498;28;20363;-68
2023/08/01 01:47:54;;;;;;;7.88;3.75;;;22.20;75.60;;;;;;4957347;28;20027;-68
2023/08/01 01:50:20;;;;;;;7.72;3.97;;;22.20;75.70;;;;;;4957491;28;20449;-67
2023/08/01 01:52:46;;;;;;;7.28;4.00;;;22.20;75.70;;;;;;4957951;28;20027;-68
2023/08/01 01:55:12;;;;;;;6.43;3.92;;;22.30;75.70;;;;;;4957377;28;20034;-68
2023/08/01 01:57:38;;;;;;;7.85;4.00;;;22.20;75.70;;;;;;4957544;28;20350;-68
2023/08/01 02:00:05;;;;;;;9.15;4.50;;;22.20;75.70;;;;;;4957817;28;20075;-68
2023/08/01 02:02:32;;;;;;;5.47;3.97;;;22.20;75.60;;;;;;4957220;28;20558;-68
2023/08/01 02:04:58;;;;;;;6.78;3.75;;;22.20;75.50;;;;;;4957745;29;20073;-68
2023/08/01 02:07:23;;;;;;;9.02;3.88;;;22.20;75.60;;;;;;4957133;29;20023;-68
2023/08/01 02:09:50;;;;;;;8.15;3.67;;;22.20;75.50;;;;;;4957601;28;20040;-68
2023/08/01 02:12:16;;;;;;;9.57;4.57;;;22.20;75.40;;;;;;4957173;29;20383;-68
2023/08/01 02:14:42;;;;;;;6.57;4.25;;;22.20;75.50;;;;;;4957127;28;20142;-68
2023/08/01 02:17:08;;;;;;;10.93;4.13;;;22.20;75.50;;;;;;4957191;28;20023;-68
2023/08/01 02:19:34;;;;;;;7.60;4.03;;;22.20;75.30;;;;;;4957109;28;20054;-67
2023/08/01 02:22:00;;;;;;;5.13;3.28;;;22.10;75.50;;;;;;4957312;28;20027;-68
2023/08/01 02:24:29;;;;;;;5.20;3.35;;;22.20;75.50;;;;;;4957085;28;20438;-68
2023/08/01 02:26:55;;;;;;;5.70;4.00;;;22.10;75.50;;;;;;4957393;28;20035;-68
2023/08/01 02:29:21;;;;;;;5.88;3.55;;;22.10;75.60;;;;;;4958949;28;20035;-68
2023/08/01 02:31:54;;;;;;;5.15;3.47;;;22.10;75.60;;;;;;4961004;28;20560;-68
2023/08/01 02:34:20;;;;;;;6.28;4.30;;;22.10;75.60;;;;;;4960869;28;20086;-68
2023/08/01 02:36:47;;;;;;;4.32;3.63;;;22.10;75.60;;;;;;4960810;28;20023;-68
2023/08/01 02:39:13;;;;;;;4.00;3.15;;;22.10;75.70;;;;;;4961360;28;20027;-68
2023/08/01 02:41:39;;;;;;;4.45;3.30;;;22.10;75.70;;;;;;4960842;28;20042;-67
2023/08/01 02:44:05;;;;;;;4.82;3.47;;;22.10;75.80;;;;;;4960811;28;20454;-68
2023/08/01 02:46:31;;;;;;;4.53;3.38;;;22.10;75.90;;;;;;4961000;28;20350;-68
2023/08/01 02:48:57;;;;;;;5.75;3.50;;;22.10;76.00;;;;;;4960517;28;20035;-68
2023/08/01 02:51:23;;;;;;;3.80;3.28;;;22.10;75.90;;;;;;4960580;28;20027;-68
2023/08/01 02:53:49;;;;;;;4.63;3.70;;;22.10;76.00;;;;;;4960872;28;20091;-68
2023/08/01 02:56:15;;;;;;;5.57;3.42;;;22.10;76.10;;;;;;4961037;28;20045;-68
2023/08/01 02:58:42;;;;;;;6.57;3.30;;;22.10;75.90;;;;;;4960398;28;20031;-67
2023/08/01 03:01:24;;;;;;;4.72;3.38;;;22.10;76.00;;;;;;4960375;28;20369;-68
2023/08/01 03:03:51;;;;;;;5.68;3.88;;;22.10;76.00;;;;;;4960927;29;20082;-68
2023/08/01 03:06:18;;;;;;;5.13;4.00;;;22.10;76.00;;;;;;4960609;28;20114;-67
2023/08/01 03:08:44;;;;;;;5.07;3.90;;;22.10;76.00;;;;;;4960053;28;20051;-68
2023/08/01 03:11:11;;;;;;;5.05;3.63;;;22.10;76.00;;;;;;4960294;28;20054;-68
2023/08/01 03:16:59;;;;;;;5.60;3.78;;;22.10;76.20;;;;;;4960356;29;20078;-68
2023/08/01 03:19:24;;;;;;;6.45;3.80;;;22.10;76.10;;;;;;4960420;28;20031;-68
2023/08/01 03:21:50;;;;;;;5.43;4.10;;;22.10;76.10;;;;;;4960087;28;20031;-68
2023/08/01 03:24:16;;;;;;;8.75;4.63;;;22.00;76.20;;;;;;4959056;29;20031;-68
2023/08/01 03:26:42;;;;;;;5.22;4.20;;;22.00;76.30;;;;;;4959928;28;20031;-67
2023/08/01 03:29:08;;;;;;;5.82;4.40;;;22.10;76.40;;;;;;4959877;28;20073;-68
2023/08/01 03:31:34;;;;;;;7.30;5.10;;;22.10;76.50;;;;;;4959847;28;20019;-68
2023/08/01 03:34:00;;;;;;;6.55;4.43;;;22.10;76.70;;;;;;4959872;28;20077;-67
2023/08/01 03:36:26;;;;;;;5.60;4.60;;;22.00;76.80;;;;;;4959229;29;20051;-68
2023/08/01 03:38:53;;;;;;;7.60;5.15;;;22.00;76.70;;;;;;4959661;29;20039;-67
2023/08/01 03:41:19;;;;;;;8.60;5.68;;;22.10;76.70;;;;;;4958617;28;20038;-68
2023/08/01 03:43:45;;;;;;;7.57;5.80;;;22.10;76.60;;;;;;4959901;28;20031;-68
2023/08/01 03:46:11;;;;;;;7.78;5.35;;;22.10;76.80;;;;;;4959884;28;20472;-68
2023/08/01 03:48:37;;;;;;;10.50;5.70;;;22.10;76.80;;;;;;4959529;29;20125;-68
2023/08/01 03:51:03;;;;;;;8.85;5.10;;;22.00;76.90;;;;;;4959808;28;20031;-67
2023/08/01 03:53:30;;;;;;;7.22;4.85;;;22.10;76.90;;;;;;4959450;28;20042;-68
2023/08/01 03:55:56;;;;;;;7.25;4.85;;;22.10;77.00;;;;;;4959730;28;20163;-68
2023/08/01 03:58:22;;;;;;;5.80;4.38;;;22.10;77.00;;;;;;4958307;29;20118;-68
2023/08/01 04:00:49;;;;;;;8.45;4.55;;;22.10;77.10;;;;;;4959372;28;20050;-67
2023/08/01 04:03:17;;;;;;;6.22;4.25;;;22.10;77.00;;;;;;4960243;28;20039;-67
2023/08/01 04:05:43;;;;;;;8.10;5.15;;;22.10;77.10;;;;;;4960870;28;20043;-68
2023/08/01 04:08:09;;;;;;;5.32;4.00;;;22.10;77.10;;;;;;4959862;28;20051;-67
2023/08/01 04:10:35;;;;;;;5.18;3.88;;;22.10;77.20;;;;;;4960337;28;20506;-67
2023/08/01 04:13:01;;;;;;;5.32;3.90;;;22.10;77.20;;;;;;4960247;28;20031;-67
2023/08/01 04:15:27;;;;;;;6.20;4.20;;;22.10;77.20;;;;;;4959381;29;20019;-67
2023/08/01 04:17:53;;;;;;;5.72;4.53;;;22.20;77.30;;;;;;4959251;28;20078;-68
2023/08/01 04:20:19;;;;;;;6.85;4.15;;;22.20;77.20;;;;;;4959253;28;20023;-68
2023/08/01 04:22:46;;;;;;;7.07;4.70;;;22.20;77.10;;;;;;4959002;28;20031;-68
2023/08/01 04:25:12;;;;;;;8.68;4.30;;;22.20;77.00;;;;;;4958878;28;20019;-68
2023/08/01 04:27:38;;;;;;;5.88;4.32;;;22.20;76.90;;;;;;4958846;28;20135;-68
2023/08/01 04:30:04;;;;;;;6.60;4.22;;;22.30;77.10;;;;;;4958810;28;20027;-68
2023/08/01 04:32:30;;;;;;;5.82;4.30;;;22.30;77.10;;;;;;4958787;28;20034;-68
2023/08/01 04:34:56;;;;;;;6.60;4.25;;;22.30;77.00;;;;;;4958697;29;20052;-68
2023/08/01 04:37:23;;;;;;;6.53;4.38;;;22.30;76.90;;;;;;4958592;29;20347;-68
2023/08/01 04:39:49;;;;;;;5.03;4.10;;;22.40;76.90;;;;;;4958949;28;20361;-69
2023/08/01 04:42:15;;;;;;;5.43;4.50;;;22.40;77.00;;;;;;4959128;28;20121;-67
2023/08/01 04:44:41;;;;;;;6.40;4.20;;;22.40;77.10;;;;;;4958597;28;20038;-68
2023/08/01 04:47:07;;;;;;;6.43;4.13;;;22.40;77.30;;;;;;4958483;29;20037;-69
2023/08/01 04:49:33;;;;;;;6.47;4.22;;;22.50;77.50;;;;;;4958368;29;20031;-69
2023/08/01 04:52:00;;;;;;;8.80;4.80;;;22.50;77.30;;;;;;4958401;28;20078;-68
2023/08/01 04:54:26;;;;;;;5.45;4.15;;;22.60;77.10;;;;;;4958316;28;20370;-69
2023/08/01 04:56:52;;;;;;;6.47;4.43;;;22.60;77.00;;;;;;4958519;28;20353;-68
2023/08/01 04:59:18;;;;;;;7.25;4.20;;;22.60;77.20;;;;;;4958790;28;20469;-69
2023/08/01 05:01:44;;;;;;;5.32;4.18;;;22.70;77.10;;;;;;4958210;28;20105;-69
2023/08/01 05:04:10;;;;;;;7.07;4.63;;;22.80;77.10;;;;;;4958178;28;20102;-69
2023/08/01 05:06:36;;;;;;;5.32;4.35;;;22.90;76.80;;;;;;4958583;28;20034;-68
2023/08/01 05:09:02;;;;;;;7.97;5.10;;;22.90;76.60;;;;;;4957928;28;20133;-68
2023/08/01 05:11:28;;;;;;;5.55;4.18;;;22.90;76.90;;;;;;4958564;28;20446;-70
2023/08/01 05:13:54;;;;;;;6.53;4.90;;;23.00;76.70;;;;;;4957040;29;20118;-69
2023/08/01 05:16:20;;;;;;;5.18;4.32;;;23.00;76.70;;;;;;4957942;28;20123;-68
2023/08/01 05:18:46;;;;;;;5.30;4.50;;;23.10;76.70;;;;;;4957884;28;20031;-69
2023/08/01 05:21:13;;;;;;;7.60;4.95;;;23.10;76.40;;;;;;4957879;29;20172;-69
2023/08/01 05:23:38;;;;;;;8.20;5.25;;;23.10;76.40;;;;;;4957795;28;20035;-68
2023/08/01 05:26:05;;;;;;;6.72;5.07;;;23.10;76.40;;;;;;4958315;28;20061;-68
2023/08/01 05:28:31;;;;;;;7.10;4.32;;;23.10;76.50;;;;;;4957682;28;20027;-68
2023/08/01 05:30:57;;;;;;;7.28;5.35;;;23.00;76.50;;;;;;4958231;28;20027;-68
2023/08/01 05:33:23;;;;;;;6.10;4.55;;;23.00;76.80;;;;;;4956719;29;20081;-68
2023/08/01 05:35:50;;;;;;;12.90;5.68;;;22.90;76.70;;;;;;4956700;29;20042;-69
2023/08/01 05:38:16;;;;;;;6.47;5.00;;;22.90;77.10;;;;;;4957959;28;20144;-68
2023/08/01 05:40:42;;;;;;;6.50;4.40;;;22.90;76.90;;;;;;4956538;29;20054;-68
2023/08/01 05:43:08;;;;;;;5.70;4.38;;;22.90;76.80;;;;;;4958023;28;20397;-68
2023/08/01 05:45:37;;;;;;;6.30;5.15;;;22.90;76.70;;;;;;4957406;28;20045;-68
2023/08/01 05:48:03;;;;;;;6.63;5.03;;;22.90;76.70;;;;;;4957209;29;20027;-68
2023/08/01 05:50:29;;;;;;;8.45;5.47;;;22.90;76.80;;;;;;4956334;29;20079;-68
2023/08/01 05:52:55;;;;;;;7.03;5.18;;;22.90;76.80;;;;;;4957327;28;20390;-68
2023/08/01 05:55:22;;;;;;;6.38;5.00;;;22.90;76.80;;;;;;4957547;29;20461;-68
2023/08/01 05:57:52;;;;;;;7.03;5.28;;;22.90;77.00;;;;;;4957440;28;20102;-68
2023/08/01 06:00:21;;;;;;;9.50;5.47;;;22.90;76.90;;;;;;4957578;28;20046;-68
2023/08/01 06:02:47;;;;;;;7.70;5.03;;;22.80;77.10;;;;;;4957222;28;20057;-68
2023/08/01 06:05:13;;;;;;;6.88;5.38;;;22.90;77.10;;;;;;4956836;28;20452;-68
2023/08/01 06:07:39;;;;;;;9.60;5.30;;;22.80;77.30;;;;;;4956851;28;20089;-68
2023/08/01 06:10:05;;;;;;;7.30;5.28;;;22.80;77.80;;;;;;4957047;28;20043;-67
2023/08/01 06:12:31;;;;;;;6.55;5.15;;;22.80;78.00;;;;;;4957364;28;20379;-68
2023/08/01 06:14:57;;;;;;;12.43;6.20;;;22.80;77.80;;;;;;4957161;28;20020;-68
2023/08/01 06:17:23;;;;;;;14.18;6.28;;;22.70;77.80;;;;;;4957299;28;20050;-70
2023/08/01 06:19:49;;;;;;;11.88;5.75;;;22.70;78.20;;;;;;4957587;28;20051;-70
2023/08/01 06:22:16;;;;;;;15.73;8.50;;;22.70;78.10;;;;;;4957330;28;20066;-70
2023/08/01 06:24:42;;;;;;;17.83;8.63;;;22.70;78.50;;;;;;4957615;28;20113;-70
2023/08/01 06:27:08;;;;;;;13.75;7.75;;;22.50;79.00;;;;;;4956941;28;20455;-70
2023/08/01 06:29:34;;;;;;;12.32;6.13;;;22.40;79.40;;;;;;4957168;29;20055;-70
2023/08/01 06:31:59;;;;;;;8.30;3.85;;;22.10;79.60;;;;;;4957536;28;20098;-69
2023/08/01 06:34:25;;;;;;;5.03;3.10;;;22.00;79.20;;;;;;4957210;29;20445;-71
2023/08/01 06:36:51;;;;;;;4.22;3.20;;;21.90;79.00;;;;;;4956849;28;20362;-70
2023/08/01 06:39:17;;;;;;;4.93;3.30;;;21.90;78.60;;;;;;4956931;28;20458;-69
2023/08/01 06:41:43;;;;;;;4.60;3.30;;;21.80;78.70;;;;;;4956937;28;20098;-70
2023/08/01 06:44:09;;;;;;;6.28;4.30;;;21.70;79.00;;;;;;4957350;28;20027;-70
2023/08/01 06:46:35;;;;;;;4.05;3.60;;;21.70;79.10;;;;;;4956846;28;20046;-70
2023/08/01 06:49:02;;;;;;;6.32;4.20;;;21.70;79.30;;;;;;4956754;28;20031;-70
2023/08/01 06:51:28;;;;;;;6.03;4.50;;;21.80;79.40;;;;;;4957067;28;20090;-70
2023/08/01 06:53:54;;;;;;;6.75;5.03;;;22.00;79.60;;;;;;4956732;28;20055;-69
2023/08/01 06:56:20;;;;;;;8.20;5.63;;;22.10;79.20;;;;;;4956982;28;20049;-70
2023/08/01 06:58:46;;;;;;;10.57;5.60;;;22.20;79.70;;;;;;4956630;28;20090;-69
2023/08/01 07:01:12;;;;;;;9.20;5.80;;;22.40;79.50;;;;;;4957150;28;20035;-70
2023/08/01 07:03:38;;;;;;;7.88;5.50;;;22.60;79.30;;;;;;4956629;28;20117;-69
2023/08/01 07:06:04;;;;;;;9.18;5.90;;;22.70;79.20;;;;;;4956936;28;20039;-69
2023/08/01 07:08:32;;;;;;;8.65;5.95;;;22.70;79.10;;;;;;4956367;28;20086;-69
2023/08/01 07:10:59;;;;;;;8.13;5.85;;;22.80;79.10;;;;;;4956521;28;20023;-70
2023/08/01 07:13:25;;;;;;;9.02;5.90;;;22.80;79.00;;;;;;4956544;28;20035;-69
2023/08/01 07:15:51;;;;;;;8.20;6.10;;;22.80;79.00;;;;;;4959629;28;20026;-69
2023/08/01 07:18:18;;;;;;;9.02;6.07;;;22.80;79.10;;;;;;4960060;28;20031;-70
2023/08/01 07:20:44;;;;;;;8.05;5.88;;;22.80;79.30;;;;;;4960108;28;20097;-70
2023/08/01 07:23:10;;;;;;;9.10;5.25;;;22.70;79.30;;;;;;4960276;28;20450;-70
2023/08/01 07:25:36;;;;;;;8.38;5.30;;;22.80;79.40;;;;;;4960234;28;20055;-69
2023/08/01 07:28:03;;;;;;;8.63;6.10;;;22.70;79.30;;;;;;4959898;28;20106;-69
2023/08/01 07:30:29;;;;;;;7.10;4.85;;;22.70;79.30;;;;;;4959838;28;20035;-70
2023/08/01 07:32:55;;;;;;;7.50;5.13;;;22.70;79.20;;;;;;4960085;28;20344;-69
2023/08/01 07:35:21;;;;;;;7.57;5.30;;;22.70;79.20;;;;;;4959777;28;20024;-70
2023/08/01 07:37:47;;;;;;;8.80;6.13;;;22.80;79.00;;;;;;4959652;28;20027;-70
2023/08/01 07:40:13;;;;;;;6.75;5.15;;;22.80;78.90;;;;;;4959909;28;20023;-69
2023/08/01 07:42:39;;;;;;;8.00;4.95;;;22.80;78.90;;;;;;4959901;28;20410;-69
2023/08/01 07:45:07;;;;;;;9.07;5.63;;;22.90;78.80;;;;;;4959890;28;20027;-70
2023/08/01 07:47:32;;;;;;;9.20;5.53;;;22.90;78.80;;;;;;4959452;28;20050;-69
2023/08/01 07:49:58;;;;;;;8.00;5.70;;;23.00;78.70;;;;;;4959426;28;20418;-70
2023/08/01 07:52:25;;;;;;;10.73;5.93;;;23.20;78.70;;;;;;4959377;28;20118;-70
2023/08/01 07:54:53;;;;;;;7.72;5.10;;;23.30;78.40;;;;;;4958498;29;20047;-70
2023/08/01 07:57:19;;;;;;;7.13;5.07;;;23.40;78.20;;;;;;4959224;28;20450;-69
2023/08/01 07:59:45;;;;;;;6.65;5.55;;;23.50;77.80;;;;;;4959579;28;20394;-70
2023/08/01 08:02:11;;;;;;;7.50;5.30;;;23.50;77.50;;;;;;4960010;28;20361;-69
2023/08/01 08:04:37;;;;;;;8.45;5.93;;;23.60;77.50;;;;;;4959947;28;20098;-69
2023/08/01 08:07:03;;;;;;;7.88;4.90;;;23.50;77.50;;;;;;4959990;29;20031;-70
2023/08/01 08:09:29;;;;;;;7.90;5.20;;;23.60;77.40;;;;;;4958922;28;20485;-70
2023/08/01 08:11:57;;;;;;;7.22;5.00;;;23.50;77.30;;;;;;4959387;28;20027;-69
2023/08/01 08:14:23;;;;;;;7.57;4.70;;;23.50;77.20;;;;;;4959087;28;20057;-69
2023/08/01 08:16:50;;;;;;;8.02;5.07;;;23.50;77.30;;;;;;4959246;28;20038;-69
2023/08/01 08:19:17;;;;;;;7.22;5.30;;;23.60;77.20;;;;;;4958983;28;20106;-70
2023/08/01 08:21:42;;;;;;;7.55;4.78;;;23.70;77.20;;;;;;4958923;28;20046;-69
2023/08/01 08:24:08;;;;;;;6.85;5.20;;;23.70;77.10;;;;;;4959132;29;20453;-69
2023/08/01 08:26:37;;;;;;;6.72;5.07;;;23.90;76.80;;;;;;4958573;28;20035;-70
2023/08/01 08:29:07;;;;;;;7.90;5.80;;;24.00;76.70;;;;;;4959242;28;20099;-70
2023/08/01 08:31:33;;;;;;;8.30;5.40;;;24.10;76.70;;;;;;4958711;28;20446;-69
2023/08/01 08:33:59;;;;;;;5.90;4.30;;;24.20;76.30;;;;;;4959225;28;20370;-70
2023/08/01 08:36:25;;;;;;;6.18;4.13;;;24.10;76.10;;;;;;4958266;28;20438;-69
2023/08/01 08:38:51;;;;;;;6.47;4.60;;;24.10;75.70;;;;;;4958458;28;20039;-69
2023/08/01 08:41:21;;;;;;;6.55;4.55;;;24.10;75.50;;;;;;4958788;29;20078;-69
2023/08/01 08:43:49;;;;;;;5.95;4.28;;;24.10;75.70;;;;;;4959013;28;20023;-69
2023/08/01 08:46:16;;;;;;;5.38;3.92;;;24.10;75.70;;;;;;4956992;28;20043;-68
2023/08/01 08:48:46;;;;;;;7.22;4.22;;;24.20;75.50;;;;;;4957626;28;20484;-69
2023/08/01 08:51:13;;;;;;;6.88;4.45;;;24.30;75.30;;;;;;4958328;28;20027;-70
2023/08/01 08:53:40;;;;;;;7.25;4.50;;;24.40;75.00;;;;;;4958305;28;20055;-70
2023/08/01 08:56:09;;;;;;;6.07;4.20;;;24.50;74.60;;;;;;4958600;28;20160;-70
2023/08/01 08:58:38;;;;;;;4.80;4.10;;;24.70;74.30;;;;;;4958423;28;20046;-70
2023/08/01 09:01:07;;;;;;;6.80;4.28;;;24.90;73.80;;;;;;4958483;28;20047;-70
2023/08/01 09:03:36;;;;;;;7.43;4.10;;;25.10;73.00;;;;;;4958429;28;20053;-69
2023/08/01 09:06:16;;;;;;;6.28;3.88;;;25.30;72.30;;;;;;4958304;28;20126;-70
2023/08/01 09:09:00;;;;;;;6.47;4.30;;;25.40;72.10;;;;;;4972869;28;20047;-70
2023/08/01 09:11:27;;;;;;;4.60;3.38;;;25.50;71.50;;;;;;4957564;29;20038;-70
2023/08/01 09:13:55;;;;;;;6.63;3.85;;;25.50;70.90;;;;;;4957991;28;20034;-70
2023/08/01 09:16:21;;;;;;;5.25;3.80;;;25.60;70.80;;;;;;4958183;28;20070;-69
2023/08/01 09:18:48;;;;;;;7.00;4.45;;;25.60;70.90;;;;;;4958362;28;20023;-70
2023/08/01 09:21:14;;;;;;;5.78;4.05;;;25.60;71.00;;;;;;4957893;29;20082;-69
2023/08/01 09:23:40;;;;;;;5.30;3.95;;;25.70;70.70;;;;;;4956838;29;20394;-70
2023/08/01 09:26:20;;;;;;;5.38;3.50;;;25.80;70.50;;;;;;4957992;29;20031;-70
2023/08/01 09:28:56;;;;;;;5.68;3.70;;;26.00;70.10;;;;;;4957957;28;20031;-69
2023/08/01 09:31:34;;;;;;;5.18;3.88;;;26.20;70.00;;;;;;4958040;28;20023;-70
2023/08/01 09:34:01;;;;;;;5.38;3.88;;;26.40;69.10;;;;;;4958227;28;20346;-70
2023/08/01 09:36:26;;;;;;;6.35;3.78;;;26.70;68.90;;;;;;4957555;28;20028;-70
2023/08/01 09:38:59;;;;;;;3.40;2.92;;;26.90;67.80;;;;;;4956885;28;20030;-70
2023/08/01 09:41:26;;;;;;;4.82;3.45;;;27.00;66.30;;;;;;4957517;28;20126;-67
2023/08/01 09:43:52;;;;;;;4.43;3.47;;;27.00;66.40;;;;;;4957740;28;20031;-68
2023/08/01 09:46:18;;;;;;;5.32;3.50;;;27.10;65.70;;;;;;4957413;28;20031;-66
2023/08/01 09:48:44;;;;;;;5.35;3.45;;;27.10;66.00;;;;;;4957299;28;20031;-68
2023/08/01 09:51:12;;;;;;;5.35;3.78;;;27.30;65.50;;;;;;4957407;28;20450;-68
2023/08/01 09:53:54;;;;;;;4.70;3.67;;;27.40;64.90;;;;;;4957643;28;20030;-67
2023/08/01 09:56:22;;;;;;;9.75;3.47;;;27.60;64.30;;;;;;4958135;28;20106;-68
2023/08/01 09:58:49;;;;;;;3.60;3.30;;;27.80;64.00;;;;;;4957191;29;20050;-68
2023/08/01 10:01:18;;;;;;;4.80;3.20;;;27.90;63.90;;;;;;4957232;28;20046;-68
2023/08/01 10:03:53;;;;;;;5.78;3.42;;;27.90;62.40;;;;;;4956199;29;20114;-68
2023/08/01 10:06:21;;;;;;;4.90;3.60;;;27.70;62.60;;;;;;4957678;28;20034;-68
2023/08/01 10:08:49;;;;;;;3.65;3.10;;;27.70;62.50;;;;;;4956820;28;20126;-67
2023/08/01 10:11:19;;;;;;;5.57;3.58;;;27.60;63.10;;;;;;4957174;28;20034;-67
2023/08/01 10:13:46;;;;;;;8.70;4.10;;;27.70;63.40;;;;;;4957137;28;20158;-68
2023/08/01 10:16:13;;;;;;;5.63;3.75;;;27.70;63.80;;;;;;4957099;28;20027;-68
2023/08/01 10:18:40;;;;;;;6.47;3.45;;;27.90;64.20;;;;;;4957023;28;20098;-68
2023/08/01 10:21:08;;;;;;;4.85;3.40;;;27.90;64.00;;;;;;4957052;28;20043;-68
2023/08/01 10:23:35;;;;;;;4.32;3.60;;;28.00;63.20;;;;;;4956955;28;20038;-68
2023/08/01 10:26:05;;;;;;;4.50;3.50;;;28.00;62.20;;;;;;4957511;28;20058;-68
2023/08/01 10:28:39;;;;;;;5.65;3.70;;;28.00;61.70;;;;;;4957124;28;20113;-68
2023/08/01 10:31:14;;;;;;;4.95;3.33;;;28.00;61.60;;;;;;4956404;29;20043;-70
2023/08/01 10:33:48;;;;;;;5.13;3.30;;;28.00;62.00;;;;;;4957451;28;20028;-68
2023/08/01 10:36:18;;;;;;;3.63;3.33;;;28.00;61.70;;;;;;4956954;28;20034;-68
2023/08/01 10:38:52;;;;;;;5.18;3.58;;;28.10;61.40;;;;;;4957330;28;20031;-68
2023/08/01 10:41:37;;;;;;;4.35;3.40;;;28.00;61.30;;;;;;4957447;28;20035;-67
2023/08/01 10:44:14;;;;;;;3.38;3.08;;;27.90;61.30;;;;;;4956861;28;20473;-68
2023/08/01 10:46:49;;;;;;;4.30;2.85;;;27.90;62.00;;;;;;4955766;28;20520;-68
2023/08/01 10:49:17;;;;;;;5.35;3.53;;;27.80;62.20;;;;;;4955980;28;20055;-68
2023/08/01 10:51:44;;;;;;;4.80;3.60;;;27.80;61.80;;;;;;4959689;29;20078;-68
2023/08/01 10:54:23;;;;;;;3.70;3.05;;;27.90;62.20;;;;;;4960830;28;20042;-68
2023/08/01 10:56:52;;;;;;;4.18;3.25;;;28.00;61.70;;;;;;4960989;28;20027;-69
2023/08/01 10:59:19;;;;;;;4.32;3.30;;;28.20;61.50;;;;;;4975532;28;20362;-69
2023/08/01 11:01:50;;;;;;;3.53;2.90;;;28.20;61.30;;;;;;4960468;28;20464;-68
2023/08/01 11:04:23;;;;;;;4.55;3.10;;;28.30;61.30;;;;;;4960745;28;20472;-68
2023/08/01 11:06:51;;;;;;;3.90;2.90;;;28.30;61.10;;;;;;4959610;29;20045;-68
2023/08/01 11:09:19;;;;;;;3.15;2.85;;;28.40;60.60;;;;;;4960011;28;20050;-68
2023/08/01 11:11:45;;;;;;;3.63;2.78;;;28.40;59.80;;;;;;4960728;28;20023;-68
2023/08/01 11:14:13;;;;;;;3.33;3.03;;;28.50;60.00;;;;;;4960804;28;20102;-68
2023/08/01 11:16:43;;;;;;;3.60;3.22;;;28.60;60.30;;;;;;4960346;28;20050;-68
2023/08/01 11:19:24;;;;;;;5.35;3.15;;;28.60;60.60;;;;;;4959180;29;20039;-68
2023/08/01 11:21:51;;;;;;;3.35;3.05;;;28.60;61.20;;;;;;4960033;28;20027;-68
2023/08/01 11:24:18;;;;;;;4.88;3.17;;;28.60;61.10;;;;;;4959444;29;20414;-69
2023/08/01 11:26:47;;;;;;;3.63;3.00;;;28.70;61.10;;;;;;4958973;28;20046;-68
2023/08/01 11:29:13;;;;;;;3.38;2.78;;;28.70;61.00;;;;;;4960328;28;20346;-68
2023/08/01 11:31:43;;;;;;;4.13;3.08;;;28.80;61.10;;;;;;4959843;28;20102;-68
2023/08/01 11:34:10;;;;;;;3.75;2.97;;;28.90;61.10;;;;;;4959846;28;20119;-68
2023/08/01 11:36:36;;;;;;;4.60;3.00;;;28.90;61.00;;;;;;4959730;28;20103;-68
2023/08/01 11:39:03;;;;;;;3.80;3.10;;;28.90;61.10;;;;;;4958652;29;20038;-69
2023/08/01 11:41:29;;;;;;;4.78;3.15;;;28.90;60.90;;;;;;4959705;28;20027;-68
2023/08/01 11:44:01;;;;;;;3.83;3.33;;;29.00;60.90;;;;;;4959938;28;20034;-69
2023/08/01 11:46:35;;;;;;;3.17;2.65;;;29.10;60.90;;;;;;4959648;28;20031;-68
2023/08/01 11:49:02;;;;;;;3.50;3.20;;;29.20;60.80;;;;;;4959389;28;20027;-68
2023/08/01 11:51:29;;;;;;;4.72;3.60;;;29.30;60.40;;;;;;4959475;28;20027;-68
2023/08/01 11:54:09;;;;;;;3.80;3.20;;;29.30;60.20;;;;;;4959503;28;20023;-68
2023/08/01 11:56:35;;;;;;;3.30;3.00;;;29.30;60.30;;;;;;4958656;29;20411;-68
2023/08/01 11:59:12;;;;;;;3.90;3.28;;;29.20;60.60;;;;;;4959299;28;20027;-68
2023/08/01 12:01:39;;;;;;;4.78;3.55;;;29.20;60.30;;;;;;4958279;28;20031;-68
2023/08/01 12:04:06;;;;;;;3.70;2.90;;;29.00;60.30;;;;;;4958386;29;20102;-68
2023/08/01 12:06:33;;;;;;;4.35;3.20;;;28.90;60.80;;;;;;4959257;28;20027;-68
2023/08/01 12:09:11;;;;;;;5.43;3.25;;;28.90;60.80;;;;;;4958868;28;20051;-69
2023/08/01 12:11:38;;;;;;;3.25;2.88;;;28.90;61.00;;;;;;4959268;28;20058;-68
2023/08/01 12:14:09;;;;;;;3.78;2.97;;;29.00;61.10;;;;;;4959173;28;20023;-68
2023/08/01 12:16:37;;;;;;;3.78;3.22;;;29.30;60.80;;;;;;4959433;28;20102;-69
2023/08/01 12:19:03;;;;;;;5.25;3.53;;;29.40;60.50;;;;;;4959513;28;20035;-68
2023/08/01 12:21:31;;;;;;;4.07;3.30;;;29.50;60.40;;;;;;4958967;28;20027;-68
2023/08/01 12:23:57;;;;;;;4.13;3.13;;;29.50;60.40;;;;;;4959451;29;20144;-68
2023/08/01 12:26:23;;;;;;;4.47;3.38;;;29.50;60.20;;;;;;4959434;28;20063;-68
2023/08/01 12:28:49;;;;;;;3.10;2.80;;;29.60;60.10;;;;;;4958766;28;20113;-68
2023/08/01 12:31:18;;;;;;;3.20;2.90;;;29.70;59.90;;;;;;4957872;29;20071;-68
2023/08/01 12:33:45;;;;;;;6.07;3.58;;;29.90;59.70;;;;;;4959354;28;20031;-68
2023/08/01 12:36:11;;;;;;;3.22;2.90;;;30.10;59.00;;;;;;4958985;28;20358;-69
2023/08/01 12:38:38;;;;;;;3.53;3.22;;;30.20;58.90;;;;;;4958640;28;20019;-68
2023/08/01 12:41:05;;;;;;;4.88;3.30;;;30.20;58.40;;;;;;4958911;28;20461;-68
2023/08/01 12:43:31;;;;;;;4.50;3.53;;;30.20;58.40;;;;;;4957985;29;20428;-68
2023/08/01 12:45:58;;;;;;;3.40;3.10;;;30.30;58.40;;;;;;4959082;28;20111;-68
2023/08/01 12:48:27;;;;;;;5.70;3.92;;;30.20;58.30;;;;;;4958627;28;20057;-69